Terminal Aerodrome Forecast
Issued by NWS Twin Cities, MN

Home | Current Version | Previous Version | Graphics & Text | Print | Product List | Glossary On
Versions: 1 2 3 4 5 6 7 8 9 10 11 12 13 14 15 16 17 18 19 20 21 22 23 24 25 26 27
000
FTUS43 KMPX 202300
TAFEAU
TAF
KEAU 202324Z 2100/2124 07004KT P6SM SCT035 SCT110
     FM210900 11004KT 4SM BR SCT015 BKN070
     FM211100 VRB02KT 2SM BR VCSH BKN015
      TEMPO 2111/2114 4SM SHRA SCT008 OVC015
     FM211400 12009KT 2SM BR VCTS SCT003 OVC025CB
      TEMPO 2114/2117 SHRA BKN003
     FM211700 15010KT 6SM BR VCSH BKN035=

USA.gov is the U.S. government's official web portal to all federal, state and local government web resources and services.